Time;durP1;ratioP1;P1;durP2;ratioP2;P2;SDS_P1;SDS_P2;PMS_P1;PMS_P2;Temp;Humidity;BMP_temperature;BMP_pressure;BME280_temperature;BME280_humidity;BME280_pressure;Samples;Min_cycle;Max_cycle;Signal;HPM_P1;HPM_P2
2022/07/27 00:00:23;;;;;;;2.80;2.42;;;25.70;99.80;;;;;;6205273;28;89127;-64
2022/07/27 00:03:25;;;;;;;3.13;2.60;;;25.70;99.90;;;;;;6203055;28;89250;-64
2022/07/27 00:06:27;;;;;;;2.78;2.40;;;25.70;99.90;;;;;;6192387;28;90042;-64
2022/07/27 00:09:29;;;;;;;2.22;2.03;;;25.70;99.80;;;;;;6202339;28;89085;-64
2022/07/27 00:12:31;;;;;;;3.17;2.30;;;25.80;99.70;;;;;;6190253;28;89073;-64
2022/07/27 00:15:35;;;;;;;2.55;2.30;;;25.70;99.60;;;;;;6197289;28;89118;-64
2022/07/27 00:18:37;;;;;;;2.58;2.30;;;25.80;99.50;;;;;;6202230;28;89071;-64
2022/07/27 00:21:39;;;;;;;3.35;2.72;;;25.80;99.40;;;;;;6205342;28;89421;-64
2022/07/27 00:24:41;;;;;;;2.72;2.50;;;25.70;99.20;;;;;;6198037;28;89134;-64
2022/07/27 00:27:43;;;;;;;3.15;2.50;;;25.70;99.20;;;;;;6191757;28;88433;-64
2022/07/27 00:30:46;;;;;;;2.85;2.25;;;25.70;99.20;;;;;;6194013;28;89066;-64
2022/07/27 00:33:49;;;;;;;3.17;2.20;;;25.80;99.20;;;;;;6195254;28;89069;-64
2022/07/27 00:36:51;;;;;;;2.47;2.28;;;25.70;99.00;;;;;;6202337;28;90326;-64
2022/07/27 00:39:55;;;;;;;3.13;2.30;;;25.70;99.10;;;;;;6198747;28;89530;-64
2022/07/27 00:42:57;;;;;;;2.70;2.50;;;25.70;99.20;;;;;;6198446;28;89489;-64
2022/07/27 00:46:01;;;;;;;2.92;2.20;;;25.70;99.30;;;;;;6201007;28;89137;-64
2022/07/27 00:49:03;;;;;;;3.05;2.42;;;25.70;99.30;;;;;;6201434;28;89067;-64
2022/07/27 00:52:05;;;;;;;2.72;2.40;;;25.70;99.30;;;;;;6201085;28;89019;-64
2022/07/27 00:55:08;;;;;;;3.00;2.33;;;25.70;99.20;;;;;;6198303;28;89118;-64
2022/07/27 00:58:10;;;;;;;3.60;2.38;;;25.70;99.10;;;;;;6203901;28;88303;-64
2022/07/27 01:01:14;;;;;;;3.40;2.10;;;25.70;99.10;;;;;;6208183;28;89115;-64
2022/07/27 01:04:16;;;;;;;2.35;2.10;;;25.70;99.00;;;;;;6188458;28;89192;-64
2022/07/27 01:07:18;;;;;;;2.53;2.33;;;25.70;99.00;;;;;;6187342;28;90024;-64
2022/07/27 01:10:20;;;;;;;2.97;2.40;;;25.70;99.00;;;;;;6203352;28;90412;-64
2022/07/27 01:13:23;;;;;;;2.30;2.10;;;25.70;98.90;;;;;;6201540;28;89078;-64
2022/07/27 01:16:26;;;;;;;2.45;2.17;;;25.70;98.90;;;;;;6204404;28;89396;-64
2022/07/27 01:19:28;;;;;;;2.42;2.22;;;25.70;99.00;;;;;;6200239;28;87951;-64
2022/07/27 01:22:32;;;;;;;2.65;2.45;;;25.70;99.00;;;;;;6203177;28;89172;-64
2022/07/27 01:25:34;;;;;;;2.40;2.20;;;25.70;99.00;;;;;;6206970;28;87962;-64
2022/07/27 01:28:36;;;;;;;2.35;2.15;;;25.70;99.10;;;;;;6206092;28;87313;-64
2022/07/27 01:31:38;;;;;;;3.38;2.67;;;25.70;99.20;;;;;;6192431;28;87948;-64
2022/07/27 01:34:40;;;;;;;3.03;2.72;;;25.60;99.20;;;;;;6185015;28;89082;-64
2022/07/27 01:37:44;;;;;;;2.95;2.25;;;25.60;99.10;;;;;;6204361;28;90025;-64
2022/07/27 01:40:46;;;;;;;2.70;2.30;;;25.70;99.10;;;;;;6194549;28;89080;-64
2022/07/27 01:43:48;;;;;;;2.45;2.25;;;25.70;99.00;;;;;;6191111;28;89162;-63
2022/07/27 01:46:50;;;;;;;2.83;2.50;;;25.60;98.90;;;;;;6201424;28;89098;-64
2022/07/27 01:49:52;;;;;;;3.08;2.60;;;25.60;98.80;;;;;;6195585;28;89097;-64
2022/07/27 01:52:55;;;;;;;2.42;2.22;;;25.70;98.60;;;;;;6203520;28;89194;-64
2022/07/27 01:55:57;;;;;;;3.40;2.20;;;25.60;98.50;;;;;;6205476;28;89105;-64
2022/07/27 01:58:59;;;;;;;2.30;2.10;;;25.60;98.40;;;;;;6206488;28;88251;-64
2022/07/27 02:02:01;;;;;;;2.53;2.15;;;25.60;98.40;;;;;;6205872;28;88973;-64
2022/07/27 02:05:04;;;;;;;2.83;2.33;;;25.60;98.40;;;;;;6198591;28;89145;-64
2022/07/27 02:08:08;;;;;;;2.50;2.13;;;25.60;98.50;;;;;;6181170;28;88891;-64
2022/07/27 02:14:29;;;;;;;3.45;2.78;;;25.60;98.50;;;;;;6200195;28;87345;-64
2022/07/27 02:17:31;;;;;;;2.50;2.30;;;25.60;98.50;;;;;;6187051;28;87950;-64
2022/07/27 02:20:35;;;;;;;2.65;2.45;;;25.60;98.50;;;;;;6188766;28;89405;-64
2022/07/27 02:23:39;;;;;;;4.15;2.60;;;25.60;98.30;;;;;;6193679;28;90281;-64
2022/07/27 02:26:41;;;;;;;3.78;2.60;;;25.60;98.10;;;;;;6181493;28;89120;-64
2022/07/27 02:29:43;;;;;;;3.00;2.42;;;25.60;98.10;;;;;;6195118;28;88323;-64
2022/07/27 02:32:45;;;;;;;3.50;2.40;;;25.60;98.20;;;;;;6205912;28;88374;-64
2022/07/27 02:35:47;;;;;;;2.58;2.38;;;25.60;98.10;;;;;;6191010;28;89515;-64
2022/07/27 02:38:51;;;;;;;2.90;2.10;;;25.50;98.10;;;;;;6183783;28;90063;-64
2022/07/27 02:41:53;;;;;;;2.80;2.40;;;25.60;97.90;;;;;;6186639;28;89079;-64
2022/07/27 02:44:55;;;;;;;3.17;2.67;;;25.60;97.80;;;;;;6199328;28;89087;-64
2022/07/27 02:47:57;;;;;;;3.22;2.50;;;25.50;97.70;;;;;;6205788;28;87963;-64
2022/07/27 02:51:01;;;;;;;2.88;2.53;;;25.50;97.70;;;;;;6193119;28;89064;-64
2022/07/27 02:54:04;;;;;;;3.33;2.78;;;25.50;97.70;;;;;;6186054;28;89041;-64
2022/07/27 02:57:06;;;;;;;4.43;2.55;;;25.50;97.80;;;;;;6200789;28;89090;-64
2022/07/27 03:00:11;;;;;;;6.28;3.00;;;25.50;97.80;;;;;;6201155;28;87236;-64
2022/07/27 03:03:13;;;;;;;3.03;2.50;;;25.50;97.80;;;;;;6195677;28;89441;-64
2022/07/27 03:06:15;;;;;;;3.22;2.70;;;25.50;97.70;;;;;;6192382;28;89027;-64
2022/07/27 03:09:19;;;;;;;3.15;2.75;;;25.50;97.60;;;;;;6204699;28;90366;-64
2022/07/27 03:12:21;;;;;;;3.30;3.00;;;25.50;97.50;;;;;;6200111;28;88132;-65
2022/07/27 03:15:23;;;;;;;2.83;2.60;;;25.50;97.40;;;;;;6188749;28;88039;-64
2022/07/27 03:18:25;;;;;;;4.93;2.72;;;25.50;97.50;;;;;;6184844;28;89497;-64
2022/07/27 03:21:27;;;;;;;5.25;2.53;;;25.50;97.20;;;;;;6185224;28;91929;-64
2022/07/27 03:24:31;;;;;;;2.88;2.67;;;25.50;97.00;;;;;;6194572;28;89033;-64
2022/07/27 03:27:33;;;;;;;2.80;2.60;;;25.50;97.00;;;;;;6205127;28;89246;-64
2022/07/27 03:30:35;;;;;;;3.45;2.90;;;25.40;96.90;;;;;;6201145;28;88277;-64
2022/07/27 03:33:37;;;;;;;2.95;2.53;;;25.40;96.90;;;;;;6200963;28;89137;-64
2022/07/27 03:36:39;;;;;;;3.50;2.33;;;25.40;96.30;;;;;;6199794;28;89049;-63
2022/07/27 03:39:43;;;;;;;4.32;2.50;;;25.40;96.10;;;;;;6198309;28;89978;-63
2022/07/27 03:42:45;;;;;;;3.10;2.10;;;25.40;95.70;;;;;;6186892;28;89088;-63
2022/07/27 03:45:47;;;;;;;4.07;2.30;;;25.40;95.80;;;;;;6209730;28;88266;-63
2022/07/27 03:48:49;;;;;;;3.60;2.40;;;25.40;95.90;;;;;;6195684;28;89509;-64
2022/07/27 03:51:51;;;;;;;2.78;2.53;;;25.40;96.00;;;;;;6195137;28;88001;-63
2022/07/27 03:54:56;;;;;;;2.85;2.55;;;25.40;95.90;;;;;;6208723;28;89141;-64
2022/07/27 03:57:58;;;;;;;4.10;2.67;;;25.40;95.70;;;;;;6207696;28;89058;-63
2022/07/27 04:01:00;;;;;;;4.35;2.65;;;25.40;95.70;;;;;;6208276;28;87242;-63
2022/07/27 04:04:02;;;;;;;4.55;2.70;;;25.40;95.70;;;;;;6201699;28;87987;-63
2022/07/27 04:07:04;;;;;;;3.22;2.50;;;25.30;95.60;;;;;;6187113;28;88067;-64
2022/07/27 04:10:09;;;;;;;3.40;2.53;;;25.30;95.60;;;;;;6183368;28;90201;-64
2022/07/27 04:13:11;;;;;;;3.60;2.50;;;25.30;95.50;;;;;;6197555;28;89236;-64
2022/07/27 04:16:13;;;;;;;2.80;2.55;;;25.40;95.60;;;;;;6191908;28;89469;-63
2022/07/27 04:19:15;;;;;;;5.32;2.78;;;25.30;95.50;;;;;;6201597;28;89031;-64
2022/07/27 04:22:17;;;;;;;3.10;2.65;;;25.30;95.60;;;;;;6197346;28;89123;-64
2022/07/27 04:25:21;;;;;;;4.85;2.67;;;25.40;95.70;;;;;;6184003;28;89498;-64
2022/07/27 04:28:23;;;;;;;3.47;2.45;;;25.30;95.80;;;;;;6184296;28;89844;-64
2022/07/27 04:31:25;;;;;;;3.35;2.67;;;25.30;95.80;;;;;;6191561;28;88346;-64
2022/07/27 04:34:27;;;;;;;3.22;2.65;;;25.30;95.90;;;;;;6192476;28;89036;-64
2022/07/27 04:37:29;;;;;;;3.10;2.70;;;25.30;96.00;;;;;;6194357;28;89660;-64
2022/07/27 04:40:33;;;;;;;3.80;2.75;;;25.30;96.00;;;;;;6193137;28;88736;-64
2022/07/27 04:43:35;;;;;;;3.20;2.90;;;25.30;96.10;;;;;;6200284;28;89227;-64
2022/07/27 04:46:37;;;;;;;2.95;2.65;;;25.40;96.10;;;;;;6207550;28;89246;-64
2022/07/27 04:49:39;;;;;;;5.80;3.47;;;25.30;96.20;;;;;;6180496;28;90136;-64
2022/07/27 04:52:41;;;;;;;4.10;2.80;;;25.30;96.40;;;;;;6184298;28;89272;-64
2022/07/27 04:55:46;;;;;;;3.55;2.67;;;25.30;96.90;;;;;;6201160;28;89002;-64
2022/07/27 04:58:48;;;;;;;4.88;2.70;;;25.30;97.00;;;;;;6196299;28;88540;-63
2022/07/27 05:01:50;;;;;;;3.30;2.92;;;25.30;97.40;;;;;;6199474;28;88468;-63
2022/07/27 05:04:52;;;;;;;4.03;2.60;;;25.30;97.60;;;;;;6194165;28;89201;-63
2022/07/27 05:07:54;;;;;;;3.42;3.00;;;25.30;98.00;;;;;;6188430;28;87926;-63
2022/07/27 05:10:57;;;;;;;6.47;2.83;;;25.30;98.10;;;;;;6189548;28;89925;-63
2022/07/27 05:13:59;;;;;;;4.30;2.78;;;25.20;98.10;;;;;;6203712;28;89062;-63
2022/07/27 05:17:01;;;;;;;4.57;3.17;;;25.30;98.30;;;;;;6195041;28;89089;-63
2022/07/27 05:20:04;;;;;;;4.32;3.20;;;25.20;98.40;;;;;;6200464;28;87335;-63
2022/07/27 05:23:06;;;;;;;8.18;3.40;;;25.20;98.60;;;;;;6198350;28;89097;-63
2022/07/27 05:26:10;;;;;;;3.65;3.08;;;25.30;98.90;;;;;;6194462;28;89134;-62
2022/07/27 05:29:12;;;;;;;5.35;3.40;;;25.30;99.10;;;;;;6192757;28;89092;-62
2022/07/27 05:32:13;;;;;;;4.63;3.30;;;25.30;99.40;;;;;;6200801;28;88326;-63
2022/07/27 05:35:16;;;;;;;4.15;3.28;;;25.30;99.50;;;;;;6197454;28;89065;-62
2022/07/27 05:38:18;;;;;;;4.63;3.60;;;25.30;99.50;;;;;;6195726;28;87972;-63
2022/07/27 05:41:24;;;;;;;5.07;3.30;;;25.30;99.80;;;;;;6193548;28;90083;-62
2022/07/27 05:44:26;;;;;;;4.50;3.60;;;25.30;99.90;;;;;;6198218;28;89039;-62
2022/07/27 05:47:28;;;;;;;4.95;3.85;;;25.20;99.70;;;;;;6199628;28;89098;-62
2022/07/27 05:50:30;;;;;;;4.18;3.50;;;25.30;99.90;;;;;;6206167;28;89346;-62
2022/07/27 05:53:33;;;;;;;4.00;3.60;;;25.30;99.90;;;;;;6196706;28;89149;-62
2022/07/27 05:56:37;;;;;;;4.22;3.40;;;25.30;99.90;;;;;;6185287;28;89354;-63
2022/07/27 05:59:39;;;;;;;4.00;3.20;;;25.20;99.90;;;;;;6186732;28;88945;-62
2022/07/27 06:02:41;;;;;;;4.18;3.78;;;25.30;99.90;;;;;;6205542;28;87283;-62
2022/07/27 06:05:43;;;;;;;4.07;3.65;;;25.30;99.90;;;;;;6198167;28;87954;-62
2022/07/27 06:08:44;;;;;;;5.38;3.67;;;25.30;99.90;;;;;;6194404;28;89083;-62
2022/07/27 06:11:48;;;;;;;4.75;3.47;;;25.30;99.90;;;;;;6180523;28;90049;-63
2022/07/27 06:14:50;;;;;;;4.70;4.30;;;25.20;99.90;;;;;;6196762;28;89388;-62
2022/07/27 06:17:52;;;;;;;4.97;4.10;;;25.30;99.90;;;;;;6194676;28;89074;-62
2022/07/27 06:20:54;;;;;;;4.18;3.70;;;25.30;99.90;;;;;;6185588;28;88093;-62
2022/07/27 06:23:57;;;;;;;4.25;3.72;;;25.20;99.90;;;;;;6198160;28;89287;-62
2022/07/27 06:27:00;;;;;;;3.75;3.42;;;25.30;99.90;;;;;;6204633;28;89337;-62
2022/07/27 06:30:03;;;;;;;5.95;4.30;;;25.30;99.90;;;;;;6189017;28;89416;-62
2022/07/27 06:33:05;;;;;;;4.20;3.78;;;25.20;99.90;;;;;;6194293;28;90518;-62
2022/07/27 06:36:08;;;;;;;3.97;3.60;;;25.30;99.90;;;;;;6204705;28;89167;-62
2022/07/27 06:39:10;;;;;;;4.38;3.97;;;25.30;99.90;;;;;;6194763;28;89113;-63
2022/07/27 06:42:14;;;;;;;4.47;4.00;;;25.30;99.90;;;;;;6192728;28;89003;-62
2022/07/27 06:45:16;;;;;;;4.22;3.72;;;25.30;99.90;;;;;;6193918;28;88148;-62
2022/07/27 06:48:20;;;;;;;3.90;3.50;;;25.30;99.90;;;;;;6194303;28;88031;-62
2022/07/27 06:51:22;;;;;;;4.38;3.72;;;25.30;99.90;;;;;;6182939;28;89451;-62
2022/07/27 06:54:24;;;;;;;3.88;3.55;;;25.30;99.90;;;;;;6194253;28;89061;-62
2022/07/27 06:57:27;;;;;;;4.03;3.72;;;25.30;99.90;;;;;;6194863;28;88384;-62
2022/07/27 07:00:29;;;;;;;3.90;3.60;;;25.30;99.90;;;;;;6191967;28;89311;-62
2022/07/27 07:03:31;;;;;;;4.25;3.70;;;25.30;99.90;;;;;;6196159;28;88752;-62
2022/07/27 07:06:33;;;;;;;4.00;3.28;;;25.30;99.90;;;;;;6189172;28;89090;-63
2022/07/27 07:09:35;;;;;;;5.18;4.10;;;25.30;99.90;;;;;;6200698;28;87658;-62
2022/07/27 07:12:39;;;;;;;3.97;3.53;;;25.30;99.90;;;;;;6185513;28;89265;-62
2022/07/27 07:15:42;;;;;;;4.10;3.70;;;25.30;99.90;;;;;;6187416;28;88109;-62
2022/07/27 07:18:44;;;;;;;3.80;3.40;;;25.30;99.90;;;;;;6198647;28;88177;-62
2022/07/27 07:21:46;;;;;;;4.35;3.95;;;25.30;99.90;;;;;;6187945;28;88042;-62
2022/07/27 07:24:48;;;;;;;4.00;3.60;;;25.30;99.90;;;;;;6204043;28;89078;-63
2022/07/27 07:27:52;;;;;;;4.07;3.67;;;25.30;99.90;;;;;;6198125;28;89675;-62
2022/07/27 07:30:54;;;;;;;3.50;3.20;;;25.30;99.90;;;;;;6206058;28;89077;-62
2022/07/27 07:33:57;;;;;;;4.00;3.60;;;25.30;99.90;;;;;;6195517;28;88261;-63
2022/07/27 07:36:59;;;;;;;4.00;3.70;;;25.30;99.90;;;;;;6200444;28;89361;-62
2022/07/27 07:40:01;;;;;;;5.05;3.72;;;25.40;99.90;;;;;;6187223;28;89373;-63
2022/07/27 07:43:05;;;;;;;3.60;3.30;;;25.30;99.90;;;;;;6204906;28;90022;-62
2022/07/27 07:46:08;;;;;;;4.00;3.60;;;25.30;99.90;;;;;;6206420;28;87959;-63
2022/07/27 07:49:10;;;;;;;3.38;3.08;;;25.30;99.90;;;;;;6185351;28;88824;-62
2022/07/27 07:52:13;;;;;;;4.20;3.42;;;25.30;99.90;;;;;;6196927;28;89028;-62
2022/07/27 07:55:15;;;;;;;3.67;3.35;;;25.30;99.90;;;;;;6202629;28;88332;-62
2022/07/27 07:58:19;;;;;;;3.85;3.55;;;25.30;99.90;;;;;;6187367;28;89022;-62
2022/07/27 08:01:21;;;;;;;5.05;3.58;;;25.30;99.90;;;;;;6201701;28;89052;-62
2022/07/27 08:04:23;;;;;;;4.53;3.58;;;25.30;99.90;;;;;;6206114;28;88757;-63
2022/07/27 08:07:25;;;;;;;4.20;3.80;;;25.30;99.90;;;;;;6190241;28;89404;-62
2022/07/27 08:10:28;;;;;;;3.33;3.03;;;25.30;99.90;;;;;;6184850;28;89043;-62
2022/07/27 08:13:31;;;;;;;4.45;3.90;;;25.30;99.90;;;;;;6191343;28;88740;-62
2022/07/27 08:16:33;;;;;;;4.22;3.75;;;25.30;99.90;;;;;;6193185;28;88000;-62
2022/07/27 08:19:35;;;;;;;4.03;3.58;;;25.30;99.90;;;;;;6193339;28;89061;-63
2022/07/27 08:22:37;;;;;;;4.38;3.95;;;25.30;99.90;;;;;;6188795;28;90199;-63
2022/07/27 08:25:39;;;;;;;3.60;3.30;;;25.30;99.90;;;;;;6197628;28;89054;-63
2022/07/27 08:28:43;;;;;;;3.47;3.17;;;25.30;99.90;;;;;;6195362;28;89121;-62
2022/07/27 08:31:45;;;;;;;3.90;3.20;;;25.30;99.90;;;;;;6206523;28;89117;-62
2022/07/27 08:34:47;;;;;;;3.72;3.28;;;25.30;99.90;;;;;;6193975;28;88322;-63
2022/07/27 08:37:50;;;;;;;4.35;3.50;;;25.30;99.90;;;;;;6182447;28;88000;-62
2022/07/27 08:40:53;;;;;;;4.93;3.70;;;25.30;99.90;;;;;;6200352;28;88768;-62
2022/07/27 08:44:00;;;;;;;3.75;3.45;;;25.30;99.90;;;;;;6198940;28;91563;-62
2022/07/27 08:47:02;;;;;;;4.03;3.20;;;25.30;99.90;;;;;;6188915;28;87630;-62
2022/07/27 08:50:21;;;;;;;4.78;3.30;;;25.30;99.90;;;;;;6198270;28;89076;-62
2022/07/27 08:53:24;;;;;;;4.30;3.90;;;25.30;99.90;;;;;;6183793;28;88969;-63
2022/07/27 08:56:26;;;;;;;4.10;3.60;;;25.40;99.90;;;;;;6184739;28;88959;-62
2022/07/27 08:59:29;;;;;;;4.35;3.30;;;25.30;99.90;;;;;;6199893;28;89071;-63
2022/07/27 09:02:31;;;;;;;4.00;3.60;;;25.30;99.90;;;;;;6201963;28;89060;-63
2022/07/27 09:05:33;;;;;;;3.50;3.20;;;25.30;99.90;;;;;;6193082;28;88941;-62
2022/07/27 09:08:37;;;;;;;3.65;3.30;;;25.30;99.90;;;;;;6192920;28;89332;-62
2022/07/27 09:11:39;;;;;;;3.72;3.42;;;25.30;99.90;;;;;;6194514;28;89147;-62
2022/07/27 09:14:43;;;;;;;4.13;3.72;;;25.30;99.90;;;;;;6202110;28;89989;-63
2022/07/27 09:17:45;;;;;;;4.25;3.28;;;25.30;99.90;;;;;;6192529;28;88015;-63
2022/07/27 09:21:09;;;;;;;3.60;3.30;;;25.30;99.90;;;;;;6198921;28;89411;-62
2022/07/27 09:24:12;;;;;;;3.58;3.20;;;25.30;99.90;;;;;;6195163;28;89093;-62
2022/07/27 09:27:14;;;;;;;4.60;3.78;;;25.30;99.90;;;;;;6199139;28;89054;-63
2022/07/27 09:30:20;;;;;;;4.25;3.10;;;25.30;99.90;;;;;;6190057;28;89102;-62
2022/07/27 09:33:22;;;;;;;4.55;3.53;;;25.30;99.90;;;;;;6196372;28;89078;-63
2022/07/27 09:36:26;;;;;;;4.47;3.50;;;25.30;99.90;;;;;;6205707;28;88732;-63
2022/07/27 09:39:29;;;;;;;3.75;3.13;;;25.30;99.90;;;;;;6195111;28;89134;-63
2022/07/27 09:42:31;;;;;;;3.80;3.20;;;25.30;99.90;;;;;;6182203;28;89904;-63
2022/07/27 09:45:36;;;;;;;4.10;3.70;;;25.30;99.90;;;;;;6182061;28;90392;-62
2022/07/27 09:48:38;;;;;;;4.03;3.63;;;25.30;99.90;;;;;;6195168;28;87984;-62
2022/07/27 09:51:45;;;;;;;4.63;3.35;;;25.30;99.90;;;;;;6197162;28;89072;-63
2022/07/27 09:54:48;;;;;;;4.15;3.80;;;25.30;99.90;;;;;;6192064;28;89061;-63
2022/07/27 09:57:54;;;;;;;3.90;3.50;;;25.30;99.90;;;;;;6181657;28;89118;-63
2022/07/27 10:00:57;;;;;;;3.70;3.40;;;25.30;99.90;;;;;;6186212;28;89088;-63
2022/07/27 10:04:01;;;;;;;7.15;4.13;;;25.30;99.90;;;;;;6192615;28;88986;-63
2022/07/27 10:07:04;;;;;;;3.85;3.20;;;25.40;99.90;;;;;;6182775;28;88218;-63
2022/07/27 10:10:08;;;;;;;4.57;4.18;;;25.30;99.90;;;;;;6190393;28;89359;-63
2022/07/27 10:13:10;;;;;;;4.13;3.75;;;25.40;99.90;;;;;;6188230;28;89074;-63
2022/07/27 10:16:16;;;;;;;4.05;3.30;;;25.40;99.90;;;;;;6180769;28;90102;-63
2022/07/27 10:19:23;;;;;;;4.38;3.33;;;25.30;99.90;;;;;;6194888;28;89161;-63
2022/07/27 10:22:49;;;;;;;4.25;3.70;;;25.40;99.90;;;;;;6183000;28;89116;-63
2022/07/27 10:26:12;;;;;;;3.72;3.30;;;25.40;99.90;;;;;;6182066;28;89160;-63
2022/07/27 10:29:17;;;;;;;4.20;3.83;;;25.40;99.90;;;;;;6181665;28;89388;-63
2022/07/27 10:32:29;;;;;;;4.68;4.18;;;25.40;99.90;;;;;;6193807;28;89699;-63
2022/07/27 10:35:33;;;;;;;4.38;3.78;;;25.40;99.90;;;;;;6181351;28;89124;-63
2022/07/27 10:38:46;;;;;;;3.90;3.50;;;25.40;99.90;;;;;;6194313;28;88309;-62
2022/07/27 10:41:48;;;;;;;4.47;3.97;;;25.40;99.90;;;;;;6186186;28;89498;-63
2022/07/27 10:44:53;;;;;;;5.57;4.70;;;25.40;99.90;;;;;;6204737;28;88958;-63
2022/07/27 10:47:57;;;;;;;4.55;3.88;;;25.40;99.90;;;;;;6192055;28;89251;-63
2022/07/27 10:50:59;;;;;;;5.28;4.60;;;25.40;99.90;;;;;;6192463;28;88298;-63
2022/07/27 10:54:20;;;;;;;6.22;4.07;;;25.40;99.90;;;;;;6193735;28;89072;-63
2022/07/27 10:57:26;;;;;;;5.00;4.20;;;25.40;99.90;;;;;;6181558;28;89214;-63
2022/07/27 11:00:59;;;;;;;3.58;3.25;;;25.40;99.90;;;;;;6192934;28;89009;-63
2022/07/27 11:04:09;;;;;;;5.40;4.07;;;25.40;99.90;;;;;;6189955;28;89115;-63
2022/07/27 11:07:12;;;;;;;4.35;3.53;;;25.40;99.90;;;;;;6196898;28;89577;-63
2022/07/27 11:10:14;;;;;;;4.03;3.40;;;25.40;99.90;;;;;;6200037;28;88336;-63
2022/07/27 11:13:17;;;;;;;105.35;34.83;;;25.40;99.90;;;;;;6194829;28;89054;-62
2022/07/27 11:16:20;;;;;;;65.07;36.10;;;25.50;99.90;;;;;;6191778;28;88298;-64
2022/07/27 11:19:24;;;;;;;33.15;22.55;;;25.60;99.90;;;;;;6199532;28;90554;-63
2022/07/27 11:22:30;;;;;;;24.55;15.10;;;25.70;99.90;;;;;;6176781;28;90363;-63
2022/07/27 11:25:32;;;;;;;18.67;11.85;;;25.90;99.90;;;;;;6191558;28;89017;-63
2022/07/27 11:28:35;;;;;;;14.80;9.43;;;26.00;99.90;;;;;;6191067;28;89072;-63
2022/07/27 11:31:39;;;;;;;11.48;8.13;;;26.10;99.00;;;;;;6193938;28;89005;-63
2022/07/27 11:34:42;;;;;;;12.98;7.85;;;26.10;98.10;;;;;;6200024;28;89079;-63
2022/07/27 11:37:58;;;;;;;10.65;7.45;;;26.10;98.90;;;;;;6200019;28;89036;-63
2022/07/27 11:41:00;;;;;;;8.75;7.25;;;26.10;99.20;;;;;;6197968;28;88467;-64
2022/07/27 11:44:04;;;;;;;9.13;6.93;;;26.10;99.60;;;;;;6202020;28;89297;-64
2022/07/27 11:47:06;;;;;;;8.80;7.53;;;26.10;99.90;;;;;;6191896;28;89091;-64
2022/07/27 11:50:12;;;;;;;9.75;7.32;;;26.30;99.90;;;;;;6190609;28;90202;-64
2022/07/27 11:53:20;;;;;;;8.85;7.28;;;26.40;99.90;;;;;;6198425;28;89059;-64
2022/07/27 11:56:23;;;;;;;8.50;7.60;;;26.30;99.90;;;;;;6190304;28;87968;-64
2022/07/27 11:59:27;;;;;;;9.60;7.50;;;26.40;99.90;;;;;;6197288;28;89535;-64
2022/07/27 12:02:29;;;;;;;11.38;9.02;;;26.40;99.90;;;;;;6189691;28;89305;-64
2022/07/27 12:05:33;;;;;;;9.73;8.63;;;26.40;99.90;;;;;;6205476;28;89072;-64
2022/07/27 12:08:35;;;;;;;10.63;8.43;;;26.40;99.90;;;;;;6205385;28;90037;-64
2022/07/27 12:11:50;;;;;;;10.07;8.50;;;26.40;99.90;;;;;;6198124;28;87188;-63
2022/07/27 12:14:55;;;;;;;10.82;8.70;;;26.40;99.90;;;;;;6202947;28;89024;-64
2022/07/27 12:17:57;;;;;;;10.32;7.68;;;26.50;99.90;;;;;;6205341;28;89143;-64
2022/07/27 12:21:00;;;;;;;7.60;6.80;;;26.60;99.90;;;;;;6197417;28;90325;-64
2022/07/27 12:24:02;;;;;;;7.40;6.70;;;26.60;99.20;;;;;;6204806;28;89039;-64
2022/07/27 12:27:07;;;;;;;7.50;6.80;;;26.70;98.60;;;;;;6200209;28;89168;-64
2022/07/27 12:30:11;;;;;;;6.45;5.95;;;26.70;96.60;;;;;;6207531;28;89134;-64
2022/07/27 12:33:26;;;;;;;7.10;6.47;;;26.70;94.50;;;;;;6196337;28;87895;-64
2022/07/27 12:36:31;;;;;;;7.22;6.53;;;26.80;96.10;;;;;;6196906;28;89621;-64
2022/07/27 12:39:33;;;;;;;7.65;6.47;;;26.80;95.10;;;;;;6203921;28;89106;-64
2022/07/27 12:42:36;;;;;;;7.88;6.32;;;26.80;95.70;;;;;;6197708;28;88303;-63
2022/07/27 12:45:38;;;;;;;6.78;6.00;;;26.80;95.90;;;;;;6193184;28;89124;-63
2022/07/27 12:48:42;;;;;;;10.25;7.38;;;26.80;96.30;;;;;;6188661;28;89021;-63
2022/07/27 12:51:45;;;;;;;11.77;7.85;;;26.70;96.70;;;;;;6194859;28;88853;-63
2022/07/27 12:54:47;;;;;;;14.90;8.70;;;26.70;96.70;;;;;;6198402;28;89161;-63
2022/07/27 12:57:52;;;;;;;16.45;9.35;;;26.80;97.00;;;;;;6197698;28;89051;-64
2022/07/27 13:00:55;;;;;;;13.95;8.35;;;26.70;97.20;;;;;;6205607;28;88982;-63
2022/07/27 13:03:57;;;;;;;15.52;8.85;;;26.70;97.20;;;;;;6207880;28;89066;-64
2022/07/27 13:07:00;;;;;;;14.73;9.02;;;26.70;97.20;;;;;;6202537;28;89549;-64
2022/07/27 13:10:03;;;;;;;16.17;8.73;;;26.70;97.10;;;;;;6183175;28;89314;-63
2022/07/27 13:13:07;;;;;;;10.85;8.00;;;26.70;97.10;;;;;;6206335;28;88386;-63
2022/07/27 13:16:09;;;;;;;12.77;8.20;;;26.70;96.80;;;;;;6195878;28;89125;-63
2022/07/27 13:19:12;;;;;;;15.27;8.35;;;26.70;96.60;;;;;;6198937;28;89128;-64
2022/07/27 13:22:16;;;;;;;17.90;9.45;;;26.70;96.60;;;;;;6190004;28;89862;-64
2022/07/27 13:25:18;;;;;;;31.13;13.00;;;26.70;96.70;;;;;;6205597;28;89540;-64
2022/07/27 13:28:20;;;;;;;39.38;16.23;;;26.70;97.30;;;;;;6188853;28;87971;-63
2022/07/27 13:31:22;;;;;;;35.20;15.40;;;26.70;99.10;;;;;;6194377;28;89162;-63
2022/07/27 13:34:24;;;;;;;24.90;13.07;;;26.60;99.50;;;;;;6198951;28;87809;-63
2022/07/27 13:37:27;;;;;;;22.58;11.23;;;26.60;99.40;;;;;;6193542;28;89069;-63
2022/07/27 13:40:29;;;;;;;18.10;10.05;;;26.60;98.80;;;;;;6194291;28;89095;-64
2022/07/27 13:43:31;;;;;;;16.10;9.60;;;26.60;98.40;;;;;;6188893;28;88287;-63
2022/07/27 13:46:34;;;;;;;13.93;8.68;;;26.60;98.30;;;;;;6202240;28;89315;-63
2022/07/27 13:49:36;;;;;;;12.75;8.48;;;26.60;97.80;;;;;;6183905;28;89171;-63
2022/07/27 13:52:39;;;;;;;14.18;8.43;;;26.50;97.70;;;;;;6184513;28;88681;-63
2022/07/27 13:55:41;;;;;;;11.68;7.90;;;26.50;97.50;;;;;;6200339;28;89042;-63
2022/07/27 13:58:43;;;;;;;11.93;8.27;;;26.50;97.10;;;;;;6196453;28;89080;-63
2022/07/27 14:01:45;;;;;;;11.23;7.97;;;26.50;96.90;;;;;;6194944;28;89084;-63
2022/07/27 14:04:47;;;;;;;11.45;7.90;;;26.50;96.50;;;;;;6197889;28;89086;-63
2022/07/27 14:07:51;;;;;;;10.80;8.35;;;26.50;96.10;;;;;;6191549;28;87968;-63
2022/07/27 14:10:53;;;;;;;9.98;7.97;;;26.50;95.50;;;;;;6182037;28;89324;-63
2022/07/27 14:13:55;;;;;;;10.32;7.60;;;26.50;95.40;;;;;;6205543;28;87509;-64
2022/07/27 14:16:57;;;;;;;10.55;7.88;;;26.50;95.50;;;;;;6193622;28;88690;-63
2022/07/27 14:19:59;;;;;;;9.27;7.28;;;26.50;95.40;;;;;;6194086;28;89119;-63
2022/07/27 14:23:03;;;;;;;10.05;7.97;;;26.50;95.30;;;;;;6199339;28;90038;-63
2022/07/27 14:26:06;;;;;;;9.63;7.45;;;26.50;95.10;;;;;;6196439;28;89002;-64
2022/07/27 14:29:08;;;;;;;9.88;7.90;;;26.50;95.10;;;;;;6190854;28;89493;-63
2022/07/27 14:32:10;;;;;;;9.93;7.10;;;26.50;95.20;;;;;;6196237;28;89097;-64
2022/07/27 14:35:12;;;;;;;11.82;8.18;;;26.50;95.20;;;;;;6181637;28;89051;-64
2022/07/27 14:38:15;;;;;;;8.10;7.18;;;26.50;98.40;;;;;;6185335;28;89087;-63
2022/07/27 14:41:17;;;;;;;8.25;7.18;;;26.60;99.80;;;;;;6196886;28;89061;-64
2022/07/27 14:44:20;;;;;;;10.40;7.10;;;26.60;99.50;;;;;;6200036;28;88655;-64
2022/07/27 14:47:22;;;;;;;9.43;6.93;;;26.60;98.70;;;;;;6193633;28;89416;-64
2022/07/27 14:50:24;;;;;;;8.57;6.88;;;26.70;98.20;;;;;;6195679;28;89208;-64
2022/07/27 14:53:28;;;;;;;9.48;7.03;;;26.70;97.90;;;;;;6195421;28;90088;-64
2022/07/27 14:56:30;;;;;;;7.25;6.60;;;26.80;97.50;;;;;;6193456;28;89071;-64
2022/07/27 14:59:32;;;;;;;8.00;6.63;;;26.80;97.70;;;;;;6196489;28;89743;-64
2022/07/27 15:02:34;;;;;;;7.70;6.78;;;26.80;97.70;;;;;;6204079;28;89116;-64
2022/07/27 15:05:36;;;;;;;8.40;6.78;;;26.80;97.50;;;;;;6185524;28;87929;-64
2022/07/27 15:08:39;;;;;;;9.25;6.82;;;26.70;97.30;;;;;;6187450;28;89077;-63
2022/07/27 15:11:41;;;;;;;8.07;6.38;;;26.70;97.50;;;;;;6191906;28;89202;-64
2022/07/27 15:14:43;;;;;;;8.52;6.95;;;26.70;97.40;;;;;;6191963;28;88403;-64
2022/07/27 15:17:45;;;;;;;7.43;6.30;;;26.70;97.40;;;;;;6197987;28;89378;-64
2022/07/27 15:20:48;;;;;;;7.03;6.35;;;26.70;97.30;;;;;;6185415;28;89115;-64
2022/07/27 15:23:51;;;;;;;7.35;6.35;;;26.70;97.20;;;;;;6184583;28;90339;-64
2022/07/27 15:26:53;;;;;;;8.00;6.32;;;26.60;97.20;;;;;;6204667;28;88021;-64
2022/07/27 15:29:55;;;;;;;7.43;6.40;;;26.60;97.30;;;;;;6189209;28;90049;-64
2022/07/27 15:32:57;;;;;;;7.82;6.45;;;26.60;97.40;;;;;;6185259;28;89377;-64
2022/07/27 15:35:59;;;;;;;8.00;6.32;;;26.60;97.50;;;;;;6197440;28;89121;-64
2022/07/27 15:39:03;;;;;;;6.88;6.18;;;26.60;97.40;;;;;;6186956;28;89061;-64
2022/07/27 15:42:06;;;;;;;7.05;6.00;;;26.50;97.50;;;;;;6207764;28;89461;-63
2022/07/27 15:45:09;;;;;;;6.70;5.97;;;26.60;97.70;;;;;;6200301;28;88425;-63
2022/07/27 15:48:12;;;;;;;6.70;6.00;;;26.50;97.40;;;;;;6197995;28;89083;-64
2022/07/27 15:51:14;;;;;;;7.28;6.53;;;26.50;97.40;;;;;;6184555;28;89074;-63
2022/07/27 15:54:18;;;;;;;6.90;6.20;;;26.50;97.50;;;;;;6184939;28;90415;-64